createdAt,value
2018-11-14T00:00:28.336Z,966.74
2018-11-14T00:01:28.319Z,966.72
2018-11-14T00:02:28.306Z,966.72
2018-11-14T00:03:28.293Z,966.72
2018-11-14T00:04:28.277Z,966.72
2018-11-14T00:05:28.261Z,966.74
2018-11-14T00:06:28.248Z,966.74
2018-11-14T00:07:28.236Z,966.77
2018-11-14T00:08:28.222Z,966.72
2018-11-14T00:09:28.246Z,966.78
2018-11-14T00:10:28.191Z,966.79
2018-11-14T00:11:28.176Z,966.77
2018-11-14T00:12:40.899Z,966.77
2018-11-14T00:13:28.148Z,966.77
2018-11-14T00:14:28.132Z,966.81
2018-11-14T00:15:28.123Z,966.78
2018-11-14T00:16:28.109Z,966.8
2018-11-14T00:17:28.089Z,966.85
2018-11-14T00:18:28.076Z,966.79
2018-11-14T00:19:28.096Z,966.79
2018-11-14T00:20:28.045Z,966.79
2018-11-14T00:21:28.031Z,966.77
2018-11-14T00:22:28.016Z,966.78
2018-11-14T00:23:28.002Z,966.79
2018-11-14T00:24:28.009Z,966.79
2018-11-14T00:25:27.974Z,966.79
2018-11-14T00:26:27.959Z,966.82
2018-11-14T00:27:27.943Z,966.77
2018-11-14T00:28:27.928Z,966.79
2018-11-14T00:29:27.926Z,966.78
2018-11-14T00:30:27.898Z,966.8
2018-11-14T00:31:27.884Z,966.77
2018-11-14T00:32:27.870Z,966.79
2018-11-14T00:33:27.860Z,966.84
2018-11-14T00:34:27.872Z,966.81
2018-11-14T00:35:27.867Z,966.87
2018-11-14T00:36:27.811Z,966.85
2018-11-14T00:37:27.798Z,966.89
2018-11-14T00:38:27.781Z,966.88
2018-11-14T00:39:27.766Z,966.88
2018-11-14T00:40:27.752Z,966.92
2018-11-14T00:41:27.738Z,966.91
2018-11-14T00:42:27.723Z,966.91
2018-11-14T00:43:27.707Z,966.88
2018-11-14T00:44:27.693Z,966.86
2018-11-14T00:45:27.678Z,966.89
2018-11-14T00:46:27.664Z,966.84
2018-11-14T00:47:27.650Z,966.83
2018-11-14T00:48:27.634Z,966.86
2018-11-14T00:49:27.619Z,966.93
2018-11-14T00:50:27.606Z,966.87
2018-11-14T00:51:27.590Z,966.89
2018-11-14T00:52:27.574Z,966.92
2018-11-14T00:53:27.560Z,966.95
2018-11-14T00:54:27.545Z,966.94
2018-11-14T00:55:27.533Z,966.97
2018-11-14T00:56:27.521Z,967
2018-11-14T00:57:27.501Z,966.98
2018-11-14T00:58:27.486Z,966.97
2018-11-14T00:59:27.471Z,966.98
2018-11-14T01:00:27.456Z,967
2018-11-14T01:01:27.455Z,967.04
2018-11-14T01:02:27.428Z,967
2018-11-14T01:03:27.412Z,967
2018-11-14T01:04:27.397Z,967.04
2018-11-14T01:05:27.382Z,967.01
2018-11-14T01:06:27.369Z,967.01
2018-11-14T01:07:27.353Z,966.99
2018-11-14T01:08:27.344Z,967
2018-11-14T01:09:27.324Z,967.05
2018-11-14T01:10:27.309Z,967.05
2018-11-14T01:11:27.296Z,967.06
2018-11-14T01:12:27.278Z,967.11
2018-11-14T01:13:27.264Z,967.06
2018-11-14T01:14:27.248Z,967.08
2018-11-14T01:15:27.238Z,967.11
2018-11-14T01:16:27.221Z,967.1
2018-11-14T01:17:27.243Z,967.13
2018-11-14T01:18:27.190Z,967.12
2018-11-14T01:19:27.176Z,967.16
2018-11-14T01:20:27.161Z,967.15
2018-11-14T01:21:27.145Z,967.14
2018-11-14T01:22:27.131Z,967.16
2018-11-14T01:23:27.117Z,967.16
2018-11-14T01:24:27.102Z,967.19
2018-11-14T01:25:27.086Z,967.16
2018-11-14T01:26:27.072Z,967.16
2018-11-14T01:27:27.058Z,967.18
2018-11-14T01:28:27.042Z,967.23
2018-11-14T01:29:27.028Z,967.21
2018-11-14T01:30:27.016Z,967.2
2018-11-14T01:31:26.998Z,967.2
2018-11-14T01:32:26.982Z,967.25
2018-11-14T01:33:26.968Z,967.17
2018-11-14T01:34:26.953Z,967.17
2018-11-14T01:35:26.940Z,967.16
2018-11-14T01:36:26.923Z,967.16
2018-11-14T01:37:26.909Z,967.2
2018-11-14T01:38:26.893Z,967.19
2018-11-14T01:39:26.880Z,967.15
2018-11-14T01:40:26.864Z,967.18
2018-11-14T01:41:26.848Z,967.19
2018-11-14T01:42:26.838Z,967.22
2018-11-14T01:43:26.819Z,967.18
2018-11-14T01:44:26.804Z,967.19
2018-11-14T01:45:26.792Z,967.22
2018-11-14T01:46:26.778Z,967.22
2018-11-14T01:47:26.761Z,967.23
2018-11-14T01:48:26.745Z,967.25
2018-11-14T01:49:26.730Z,967.23
2018-11-14T01:50:26.716Z,967.2
2018-11-14T01:51:26.739Z,967.22
2018-11-14T01:52:26.686Z,967.22
2018-11-14T01:53:26.672Z,967.23
2018-11-14T01:54:26.656Z,967.22
2018-11-14T01:55:26.650Z,967.21
2018-11-14T01:56:26.628Z,967.2
2018-11-14T01:57:26.613Z,967.17
2018-11-14T01:58:26.596Z,967.19
2018-11-14T01:59:26.582Z,967.16
2018-11-14T02:00:26.568Z,967.2
2018-11-14T02:01:26.553Z,967.22
2018-11-14T02:02:26.537Z,967.22
2018-11-14T02:03:26.523Z,967.19
2018-11-14T02:04:26.508Z,967.19
2018-11-14T02:05:26.492Z,967.22
2018-11-14T02:06:26.478Z,967.19
2018-11-14T02:07:26.463Z,967.14
2018-11-14T02:08:26.450Z,967.19
2018-11-14T02:09:26.434Z,967.16
2018-11-14T02:10:26.420Z,967.17
2018-11-14T02:11:26.404Z,967.2
2018-11-14T02:12:26.390Z,967.18
2018-11-14T02:13:26.375Z,967.19
2018-11-14T02:14:26.361Z,967.19
2018-11-14T02:15:26.345Z,967.16
2018-11-14T02:16:26.331Z,967.18
2018-11-14T02:17:26.315Z,967.11
2018-11-14T02:18:26.300Z,967.14
2018-11-14T02:19:26.285Z,967.14
2018-11-14T02:20:26.270Z,967.13
2018-11-14T02:21:26.255Z,967.14
2018-11-14T02:22:26.240Z,967.15
2018-11-14T02:23:26.226Z,967.11
2018-11-14T02:24:26.210Z,967.1
2018-11-14T02:25:26.195Z,967.13
2018-11-14T02:26:26.179Z,967.16
2018-11-14T02:27:26.166Z,967.17
2018-11-14T02:28:26.151Z,967.17
2018-11-14T02:29:26.134Z,967.14
2018-11-14T02:30:26.121Z,967.18
2018-11-14T02:31:26.107Z,967.22
2018-11-14T02:32:26.096Z,967.22
2018-11-14T02:33:26.077Z,967.19
2018-11-14T02:34:26.061Z,967.21
2018-11-14T02:35:26.059Z,967.23
2018-11-14T02:36:26.031Z,967.18
2018-11-14T02:37:26.017Z,967.19
2018-11-14T02:38:26.056Z,967.23
2018-11-14T02:39:25.986Z,967.25
2018-11-14T02:40:25.969Z,967.24
2018-11-14T02:41:25.955Z,967.23
2018-11-14T02:42:25.938Z,967.21
2018-11-14T02:43:25.924Z,967.28
2018-11-14T02:44:25.915Z,967.27
2018-11-14T02:45:25.894Z,967.3
2018-11-14T02:46:25.878Z,967.28
2018-11-14T02:47:25.867Z,967.27
2018-11-14T02:48:25.849Z,967.28
2018-11-14T02:49:25.832Z,967.27
2018-11-14T02:50:25.817Z,967.27
2018-11-14T02:51:25.804Z,967.22
2018-11-14T02:52:25.789Z,967.19
2018-11-14T02:53:25.771Z,967.21
2018-11-14T02:54:25.756Z,967.22
2018-11-14T02:55:25.742Z,967.21
2018-11-14T02:56:25.728Z,967.23
2018-11-14T02:57:25.713Z,967.2
2018-11-14T02:58:25.696Z,967.16
2018-11-14T02:59:25.681Z,967.15
2018-11-14T03:00:25.666Z,967.17
2018-11-14T03:01:25.652Z,967.19
2018-11-14T03:02:25.644Z,967.2
2018-11-14T03:03:25.622Z,967.22
2018-11-14T03:04:25.606Z,967.23
2018-11-14T03:05:25.591Z,967.18
2018-11-14T03:06:25.601Z,967.2
2018-11-14T03:07:25.559Z,967.18
2018-11-14T03:08:25.543Z,967.21
2018-11-14T03:09:25.528Z,967.18
2018-11-14T03:10:25.515Z,967.23
2018-11-14T03:11:25.497Z,967.16
2018-11-14T03:12:25.655Z,967.21
2018-11-14T03:13:25.467Z,967.23
2018-11-14T03:14:25.452Z,967.18
2018-11-14T03:15:25.436Z,967.19
2018-11-14T03:16:25.421Z,967.16
2018-11-14T03:17:25.406Z,967.14
2018-11-14T03:18:25.391Z,967.15
2018-11-14T03:19:25.374Z,967.12
2018-11-14T03:20:25.360Z,967.15
2018-11-14T03:21:25.345Z,967.12
2018-11-14T03:22:25.328Z,967.13
2018-11-14T03:23:25.313Z,967.18
2018-11-14T03:24:25.297Z,967.14
2018-11-14T03:25:25.283Z,967.15
2018-11-14T03:26:25.266Z,967.14
2018-11-14T03:27:25.250Z,967.19
2018-11-14T03:28:25.235Z,967.13
2018-11-14T03:29:25.219Z,967.08
2018-11-14T03:30:25.206Z,967.13
2018-11-14T03:31:25.272Z,967.13
2018-11-14T03:32:25.175Z,967.14
2018-11-14T03:33:25.158Z,967.15
2018-11-14T03:34:25.142Z,967.14
2018-11-14T03:35:25.129Z,967.11
2018-11-14T03:36:25.113Z,967.1
2018-11-14T03:37:25.096Z,967.12
2018-11-14T03:38:25.080Z,967.08
2018-11-14T03:39:25.069Z,967.05
2018-11-14T03:40:25.049Z,967.11
2018-11-14T03:41:25.035Z,967.04
2018-11-14T03:42:25.021Z,967.06
2018-11-14T03:43:25.006Z,967.04
2018-11-14T03:44:24.987Z,967.06
2018-11-14T03:45:24.972Z,967.06
2018-11-14T03:46:24.958Z,967.06
2018-11-14T03:47:24.947Z,967.09
2018-11-14T03:48:24.927Z,967.09
2018-11-14T03:49:24.912Z,967.07
2018-11-14T03:50:24.899Z,967.05
2018-11-14T03:51:24.881Z,967.06
2018-11-14T03:52:24.865Z,967.08
2018-11-14T03:53:24.850Z,967.07
2018-11-14T03:54:24.837Z,967.13
2018-11-14T03:55:24.820Z,967.09
2018-11-14T03:56:24.804Z,967.11
2018-11-14T03:57:24.790Z,967.08
2018-11-14T03:58:24.878Z,967.17
2018-11-14T03:59:24.757Z,967.09
2018-11-14T04:00:24.748Z,967.13
2018-11-14T04:01:24.727Z,967.1
2018-11-14T04:02:24.711Z,967.09
2018-11-14T04:03:24.696Z,967.09
2018-11-14T04:04:24.682Z,967.1
2018-11-14T04:05:24.721Z,967.09
2018-11-14T04:06:24.655Z,967.1
2018-11-14T04:07:24.635Z,967.14
2018-11-14T04:08:24.620Z,967.11
2018-11-14T04:09:24.686Z,967.19
2018-11-14T04:10:24.592Z,967.13
2018-11-14T04:11:24.572Z,967.17
2018-11-14T04:12:24.572Z,967.16
2018-11-14T04:13:24.542Z,967.1
2018-11-14T04:14:24.526Z,967.12
2018-11-14T04:15:24.511Z,967.11
2018-11-14T04:16:24.496Z,967.11
2018-11-14T04:17:24.479Z,967.13
2018-11-14T04:18:24.464Z,967.12
2018-11-14T04:19:24.449Z,967.09
2018-11-14T04:20:24.437Z,967.11
2018-11-14T04:21:24.418Z,967.09
2018-11-14T04:22:24.403Z,967.13
2018-11-14T04:23:24.388Z,967.13
2018-11-14T04:24:24.372Z,967.09
2018-11-14T04:25:24.354Z,967.15
2018-11-14T04:26:24.339Z,967.15
2018-11-14T04:27:24.324Z,967.17
2018-11-14T04:28:24.308Z,967.15
2018-11-14T04:29:24.292Z,967.15
2018-11-14T04:30:24.277Z,967.15
2018-11-14T04:31:24.262Z,967.16
2018-11-14T04:32:24.253Z,967.08
2018-11-14T04:33:24.231Z,967.07
2018-11-14T04:34:24.216Z,967.09
2018-11-14T04:35:24.199Z,967.11
2018-11-14T04:36:24.184Z,967.08
2018-11-14T04:37:24.168Z,967.03
2018-11-14T04:38:24.152Z,967.01
2018-11-14T04:39:24.138Z,967.02
2018-11-14T04:40:24.123Z,966.99
2018-11-14T04:41:24.105Z,967.03
2018-11-14T04:42:24.088Z,967.02
2018-11-14T04:43:24.084Z,967.01
2018-11-14T04:44:24.057Z,966.97
2018-11-14T04:45:24.041Z,966.94
2018-11-14T04:46:24.029Z,966.96
2018-11-14T04:47:24.010Z,966.92
2018-11-14T04:48:23.994Z,966.92
2018-11-14T04:49:23.979Z,966.91
2018-11-14T04:50:23.962Z,966.91
2018-11-14T04:51:23.947Z,966.95
2018-11-14T04:52:23.932Z,966.93
2018-11-14T04:53:23.915Z,966.89
2018-11-14T04:54:23.898Z,966.9
2018-11-14T04:55:23.884Z,966.93
2018-11-14T04:56:23.866Z,966.93
2018-11-14T04:57:23.850Z,966.91
2018-11-14T04:58:23.834Z,966.92
2018-11-14T04:59:23.822Z,966.93
2018-11-14T05:00:23.805Z,966.94
2018-11-14T05:01:23.787Z,966.91
2018-11-14T05:02:23.790Z,966.99
2018-11-14T05:03:23.758Z,966.95
2018-11-14T05:04:23.743Z,966.99
2018-11-14T05:05:23.725Z,966.94
2018-11-14T05:06:23.705Z,966.91
2018-11-14T05:07:23.692Z,966.91
2018-11-14T05:08:23.673Z,966.88
2018-11-14T05:09:23.657Z,966.92
2018-11-14T05:10:23.642Z,966.9
2018-11-14T05:11:23.629Z,966.88
2018-11-14T05:12:23.612Z,966.92
2018-11-14T05:13:23.593Z,966.98
2018-11-14T05:14:23.577Z,966.98
2018-11-14T05:15:23.561Z,966.97
2018-11-14T05:16:23.544Z,967
2018-11-14T05:17:23.528Z,966.92
2018-11-14T05:18:23.514Z,966.97
2018-11-14T05:19:23.496Z,966.93
2018-11-14T05:20:23.480Z,966.93
2018-11-14T05:21:23.465Z,966.99
2018-11-14T05:22:23.448Z,966.91
2018-11-14T05:23:23.432Z,966.94
2018-11-14T05:24:23.460Z,966.92
2018-11-14T05:25:23.399Z,966.94
2018-11-14T05:26:23.383Z,966.91
2018-11-14T05:27:23.366Z,966.89
2018-11-14T05:28:23.353Z,966.83
2018-11-14T05:29:23.337Z,966.88
2018-11-14T05:30:23.316Z,966.87
2018-11-14T05:31:23.301Z,966.82
2018-11-14T05:32:23.284Z,966.83
2018-11-14T05:33:23.269Z,966.84
2018-11-14T05:34:23.250Z,966.82
2018-11-14T05:35:23.234Z,966.83
2018-11-14T05:36:23.219Z,966.86
2018-11-14T05:37:23.204Z,966.88
2018-11-14T05:38:23.185Z,966.88
2018-11-14T05:39:23.198Z,966.89
2018-11-14T05:40:23.152Z,966.87
2018-11-14T05:41:23.136Z,966.85
2018-11-14T05:42:23.120Z,966.93
2018-11-14T05:43:23.104Z,966.92
2018-11-14T05:44:23.087Z,966.95
2018-11-14T05:45:23.093Z,966.91
2018-11-14T05:46:23.054Z,966.91
2018-11-14T05:47:23.038Z,966.9
2018-11-14T05:48:23.020Z,966.93
2018-11-14T05:49:23.004Z,966.97
2018-11-14T05:50:22.996Z,966.93
2018-11-14T05:51:22.972Z,966.94
2018-11-14T05:52:22.955Z,966.91
2018-11-14T05:53:22.939Z,966.92
2018-11-14T05:54:22.922Z,966.95
2018-11-14T05:55:22.908Z,966.92
2018-11-14T05:56:22.890Z,966.89
2018-11-14T05:57:22.873Z,966.91
2018-11-14T05:58:22.857Z,966.89
2018-11-14T05:59:22.840Z,966.89
2018-11-14T06:00:22.823Z,966.92
2018-11-14T06:01:22.807Z,966.99
2018-11-14T06:02:22.790Z,966.98
2018-11-14T06:03:22.772Z,966.99
2018-11-14T06:04:22.757Z,966.97
2018-11-14T06:05:22.739Z,966.96
2018-11-14T06:06:22.725Z,966.99
2018-11-14T06:07:22.840Z,967.01
2018-11-14T06:08:22.692Z,967.02
2018-11-14T06:09:22.675Z,967
2018-11-14T06:10:22.658Z,967.04
2018-11-14T06:11:22.655Z,967.02
2018-11-14T06:12:22.625Z,967.03
2018-11-14T06:13:22.608Z,967.06
2018-11-14T06:14:22.591Z,967.02
2018-11-14T06:15:22.647Z,967.04
2018-11-14T06:16:22.559Z,967
2018-11-14T06:17:22.541Z,967.04
2018-11-14T06:18:22.525Z,967.04
2018-11-14T06:19:22.508Z,967.03
2018-11-14T06:20:22.495Z,966.98
2018-11-14T06:21:22.479Z,966.96
2018-11-14T06:22:22.459Z,966.93
2018-11-14T06:23:22.467Z,966.85
2018-11-14T06:24:22.426Z,966.85
2018-11-14T06:25:22.421Z,966.88
2018-11-14T06:26:22.399Z,966.87
2018-11-14T06:27:22.376Z,966.88
2018-11-14T06:28:22.357Z,966.85
2018-11-14T06:29:22.346Z,966.88
2018-11-14T06:30:22.333Z,966.88
2018-11-14T06:31:22.307Z,966.84
2018-11-14T06:32:22.291Z,966.89
2018-11-14T06:33:22.273Z,966.86
2018-11-14T06:34:22.262Z,966.9
2018-11-14T06:35:22.240Z,966.91
2018-11-14T06:36:22.226Z,966.9
2018-11-14T06:37:22.207Z,966.92
2018-11-14T06:38:22.189Z,966.93
2018-11-14T06:39:22.173Z,966.97
2018-11-14T06:40:22.155Z,966.9
2018-11-14T06:41:22.138Z,966.91
2018-11-14T06:42:22.123Z,966.92
2018-11-14T06:43:22.107Z,966.85
2018-11-14T06:44:22.088Z,966.85
2018-11-14T06:45:22.073Z,966.89
2018-11-14T06:46:22.059Z,966.9
2018-11-14T06:47:22.037Z,966.87
2018-11-14T06:48:22.021Z,966.92
2018-11-14T06:49:22.005Z,966.86
2018-11-14T06:50:21.990Z,966.85
2018-11-14T06:51:21.971Z,966.88
2018-11-14T06:52:21.957Z,966.89
2018-11-14T06:53:21.937Z,966.85
2018-11-14T06:54:21.920Z,966.86
2018-11-14T06:55:21.903Z,966.92
2018-11-14T06:56:21.886Z,966.92
2018-11-14T06:57:21.872Z,966.88
2018-11-14T06:58:21.852Z,966.92
2018-11-14T06:59:21.906Z,966.94
2018-11-14T07:00:21.818Z,966.93
2018-11-14T07:01:21.803Z,966.96
2018-11-14T07:02:27.318Z,966.98
2018-11-14T07:03:21.860Z,966.99
2018-11-14T07:04:21.752Z,967
2018-11-14T07:05:21.816Z,966.99
2018-11-14T07:06:21.719Z,966.94
2018-11-14T07:07:21.704Z,966.95
2018-11-14T07:08:21.690Z,966.93
2018-11-14T07:09:21.669Z,966.94
2018-11-14T07:10:21.653Z,966.93
2018-11-14T07:11:21.636Z,966.94
2018-11-14T07:12:21.619Z,966.89
2018-11-14T07:13:21.603Z,966.92
2018-11-14T07:14:21.587Z,966.96
2018-11-14T07:15:21.570Z,966.88
2018-11-14T07:16:21.552Z,966.88
2018-11-14T07:17:21.538Z,966.9
2018-11-14T07:18:21.521Z,966.9
2018-11-14T07:19:21.506Z,966.97
2018-11-14T07:20:21.492Z,966.99
2018-11-14T07:21:21.471Z,967
2018-11-14T07:22:21.456Z,967.02
2018-11-14T07:23:21.437Z,966.99
2018-11-14T07:24:21.437Z,966.96
2018-11-14T07:25:21.405Z,967.01
2018-11-14T07:26:21.388Z,967.01
2018-11-14T07:27:21.372Z,966.99
2018-11-14T07:28:21.355Z,967.02
2018-11-14T07:29:21.343Z,967.02
2018-11-14T07:30:21.324Z,967.09
2018-11-14T07:31:21.306Z,967.14
2018-11-14T07:32:21.290Z,967.1
2018-11-14T07:33:21.274Z,967.1
2018-11-14T07:34:21.257Z,967.07
2018-11-14T07:35:21.241Z,967.08
2018-11-14T07:36:21.233Z,967.17
2018-11-14T07:37:21.209Z,967.16
2018-11-14T07:38:21.192Z,967.12
2018-11-14T07:39:21.176Z,967.16
2018-11-14T07:40:21.159Z,967.1
2018-11-14T07:41:21.144Z,967.09
2018-11-14T07:42:21.128Z,967.09
2018-11-14T07:43:21.114Z,967.08
2018-11-14T07:44:21.096Z,967.06
2018-11-14T07:45:21.080Z,967.09
2018-11-14T07:46:21.063Z,967.1
2018-11-14T07:47:21.047Z,967.13
2018-11-14T07:48:21.031Z,967.1
2018-11-14T07:49:21.016Z,967.15
2018-11-14T07:50:20.999Z,967.12
2018-11-14T07:51:21.049Z,967.14
2018-11-14T07:52:20.967Z,967.15
2018-11-14T07:53:21.019Z,967.16
2018-11-14T07:54:20.963Z,967.17
2018-11-14T07:55:20.925Z,967.15
2018-11-14T07:56:20.903Z,967.18
2018-11-14T07:57:20.886Z,967.2
2018-11-14T07:58:20.875Z,967.22
2018-11-14T07:59:20.855Z,967.23
2018-11-14T08:00:20.839Z,967.22
2018-11-14T08:01:20.822Z,967.25
2018-11-14T08:02:20.854Z,967.23
2018-11-14T08:03:20.792Z,967.25
2018-11-14T08:04:20.774Z,967.28
2018-11-14T08:05:20.759Z,967.21
2018-11-14T08:06:20.743Z,967.18
2018-11-14T08:07:20.728Z,967.25
2018-11-14T08:08:20.826Z,967.22
2018-11-14T08:09:20.697Z,967.17
2018-11-14T08:10:20.682Z,967.19
2018-11-14T08:11:20.663Z,967.19
2018-11-14T08:12:20.648Z,967.18
2018-11-14T08:13:20.633Z,967.21
2018-11-14T08:14:20.615Z,967.26
2018-11-14T08:15:20.601Z,967.21
2018-11-14T08:16:20.585Z,967.25
2018-11-14T08:17:20.570Z,967.26
2018-11-14T08:18:20.553Z,967.25
2018-11-14T08:19:20.537Z,967.26
2018-11-14T08:20:20.523Z,967.25
2018-11-14T08:21:20.507Z,967.2
2018-11-14T08:22:20.492Z,967.18
2018-11-14T08:23:20.477Z,967.19
2018-11-14T08:24:20.460Z,967.18
2018-11-14T08:25:20.445Z,967.18
2018-11-14T08:26:20.429Z,967.18
2018-11-14T08:27:20.414Z,967.16
2018-11-14T08:28:20.406Z,967.14
2018-11-14T08:29:20.382Z,967.16
2018-11-14T08:30:20.369Z,967.19
2018-11-14T08:31:20.353Z,967.13
2018-11-14T08:32:20.336Z,967.14
2018-11-14T08:33:20.321Z,967.14
2018-11-14T08:34:20.305Z,967.14
2018-11-14T08:35:20.289Z,967.14
2018-11-14T08:36:20.275Z,967.16
2018-11-14T08:37:20.268Z,967.2
2018-11-14T08:38:20.244Z,967.19
2018-11-14T08:39:20.307Z,967.13
2018-11-14T08:40:20.212Z,967.19
2018-11-14T08:41:20.196Z,967.19
2018-11-14T08:42:20.182Z,967.17
2018-11-14T08:43:20.166Z,967.21
2018-11-14T08:44:20.157Z,967.19
2018-11-14T08:45:20.135Z,967.2
2018-11-14T08:46:20.122Z,967.15
2018-11-14T08:47:20.104Z,967.1
2018-11-14T08:48:20.089Z,967.13
2018-11-14T08:49:20.075Z,967.11
2018-11-14T08:50:20.175Z,967.12
2018-11-14T08:51:20.045Z,967.13
2018-11-14T08:52:20.029Z,967.11
2018-11-14T08:53:20.015Z,967.12
2018-11-14T08:54:19.999Z,967.13
2018-11-14T08:55:19.984Z,967.09
2018-11-14T08:56:19.969Z,967.14
2018-11-14T08:57:19.953Z,967.2
2018-11-14T08:58:19.941Z,967.21
2018-11-14T08:59:19.923Z,967.21
2018-11-14T09:00:19.909Z,967.21
2018-11-14T09:01:19.895Z,967.22
2018-11-14T09:02:19.879Z,967.23
2018-11-14T09:03:19.863Z,967.25
2018-11-14T09:04:19.849Z,967.26
2018-11-14T09:05:19.834Z,967.25
2018-11-14T09:06:19.966Z,967.25
2018-11-14T09:07:19.804Z,967.25
2018-11-14T09:08:19.789Z,967.27
2018-11-14T09:09:19.774Z,967.26
2018-11-14T09:10:19.759Z,967.27
2018-11-14T09:11:19.851Z,967.28
2018-11-14T09:12:19.757Z,967.28
2018-11-14T09:13:19.715Z,967.3
2018-11-14T09:14:19.735Z,967.33
2018-11-14T09:15:19.687Z,967.28
2018-11-14T09:16:19.671Z,967.27
2018-11-14T09:17:19.657Z,967.19
2018-11-14T09:18:19.760Z,967.2
2018-11-14T09:19:19.629Z,967.18
2018-11-14T09:20:19.615Z,967.21
2018-11-14T09:21:19.598Z,967.19
2018-11-14T09:22:19.585Z,967.18
2018-11-14T09:23:19.569Z,967.18
2018-11-14T09:24:19.560Z,967.21
2018-11-14T09:25:19.542Z,967.21
2018-11-14T09:26:19.527Z,967.18
2018-11-14T09:27:19.512Z,967.21
2018-11-14T09:28:19.497Z,967.22
2018-11-14T09:29:19.483Z,967.23
2018-11-14T09:30:19.473Z,967.21
2018-11-14T09:31:19.453Z,967.22
2018-11-14T09:32:19.440Z,967.25
2018-11-14T09:33:19.497Z,967.25
2018-11-14T09:34:19.412Z,967.26
2018-11-14T09:35:19.397Z,967.22
2018-11-14T09:36:19.386Z,967.18
2018-11-14T09:37:19.369Z,967.19
2018-11-14T09:38:19.354Z,967.22
2018-11-14T09:39:19.341Z,967.17
2018-11-14T09:40:19.326Z,967.19
2018-11-14T09:41:19.383Z,967.16
2018-11-14T09:42:19.297Z,967.15
2018-11-14T09:43:19.285Z,967.22
2018-11-14T09:44:19.270Z,967.24
2018-11-14T09:45:19.257Z,967.29
2018-11-14T09:46:19.243Z,967.26
2018-11-14T09:47:19.229Z,967.28
2018-11-14T09:48:19.214Z,967.26
2018-11-14T09:49:19.281Z,967.27
2018-11-14T09:50:19.187Z,967.27
2018-11-14T09:51:19.171Z,967.3
2018-11-14T09:52:19.158Z,967.29
2018-11-14T09:53:19.267Z,967.32
2018-11-14T09:54:19.134Z,967.32
2018-11-14T09:55:19.116Z,967.29
2018-11-14T09:56:19.106Z,967.29
2018-11-14T09:57:19.089Z,967.27
2018-11-14T09:58:19.089Z,967.26
2018-11-14T09:59:19.062Z,967.26
2018-11-14T10:00:19.052Z,967.27
2018-11-14T10:01:19.034Z,967.28
2018-11-14T10:02:19.024Z,967.29
2018-11-14T10:03:19.007Z,967.27
2018-11-14T10:04:18.992Z,967.28
2018-11-14T10:05:18.981Z,967.26
2018-11-14T10:06:18.966Z,967.21
2018-11-14T10:07:18.955Z,967.18
2018-11-14T10:08:18.942Z,967.21
2018-11-14T10:09:18.927Z,967.21
2018-11-14T10:10:18.913Z,967.21
2018-11-14T10:11:18.898Z,967.22
2018-11-14T10:12:18.894Z,967.22
2018-11-14T10:13:18.872Z,967.25
2018-11-14T10:14:18.859Z,967.25
2018-11-14T10:15:18.845Z,967.21
2018-11-14T10:16:18.832Z,967.26
2018-11-14T10:17:18.818Z,967.24
2018-11-14T10:18:18.839Z,967.23
2018-11-14T10:19:18.792Z,967.22
2018-11-14T10:20:18.780Z,967.16
2018-11-14T10:21:18.837Z,967.12
2018-11-14T10:22:18.754Z,967.1
2018-11-14T10:23:18.740Z,967.12
2018-11-14T10:24:18.727Z,967.11
2018-11-14T10:25:18.714Z,967.13
2018-11-14T10:26:18.702Z,967.19
2018-11-14T10:27:18.688Z,967.13
2018-11-14T10:28:18.676Z,967.17
2018-11-14T10:29:18.664Z,967.18
2018-11-14T10:30:18.694Z,967.21
2018-11-14T10:31:18.639Z,967.22
2018-11-14T10:32:18.627Z,967.2
2018-11-14T10:33:18.610Z,967.16
2018-11-14T10:34:18.599Z,967.2
2018-11-14T10:35:18.585Z,967.19
2018-11-14T10:36:18.574Z,967.2
2018-11-14T10:37:18.560Z,967.19
2018-11-14T10:38:18.547Z,967.2
2018-11-14T10:39:18.535Z,967.18
2018-11-14T10:40:18.525Z,967.17
2018-11-14T10:41:18.510Z,967.17
2018-11-14T10:42:18.496Z,967.18
2018-11-14T10:43:18.484Z,967.17
2018-11-14T10:44:18.470Z,967.2
2018-11-14T10:45:18.458Z,967.15
2018-11-14T10:46:18.447Z,967.14
2018-11-14T10:47:18.435Z,967.18
2018-11-14T10:48:18.421Z,967.11
2018-11-14T10:49:18.409Z,967.11
2018-11-14T10:50:18.397Z,967.16
2018-11-14T10:51:18.387Z,967.1
2018-11-14T10:52:18.372Z,967.11
2018-11-14T10:53:18.360Z,967.11
2018-11-14T10:54:18.348Z,967.08
2018-11-14T10:55:18.335Z,967.13
2018-11-14T10:56:18.322Z,967.09
2018-11-14T10:57:18.309Z,967.1
2018-11-14T10:58:18.327Z,967.13
2018-11-14T10:59:18.285Z,967.1
2018-11-14T11:00:18.276Z,967.11
2018-11-14T11:01:18.260Z,967.13
2018-11-14T11:02:18.248Z,967.16
2018-11-14T11:03:18.238Z,967.19
2018-11-14T11:04:18.223Z,967.21
2018-11-14T11:05:18.211Z,967.24
2018-11-14T11:06:18.198Z,967.22
2018-11-14T11:07:18.185Z,967.18
2018-11-14T11:08:18.230Z,967.19
2018-11-14T11:09:18.163Z,967.19
2018-11-14T11:10:18.149Z,967.18
2018-11-14T11:11:18.137Z,967.17
2018-11-14T11:12:18.125Z,967.15
2018-11-14T11:13:18.112Z,967.1
2018-11-14T11:14:18.101Z,967.1
2018-11-14T11:15:18.088Z,967.11
2018-11-14T11:16:18.077Z,967.04
2018-11-14T11:17:18.064Z,967.06
2018-11-14T11:18:18.051Z,967.05
2018-11-14T11:19:18.046Z,966.99
2018-11-14T11:20:18.027Z,967.01
2018-11-14T11:21:18.013Z,967
2018-11-14T11:22:18.002Z,967.01
2018-11-14T11:23:18.022Z,967.04
2018-11-14T11:24:17.978Z,966.99
2018-11-14T11:25:17.966Z,966.99
2018-11-14T11:26:17.955Z,967
2018-11-14T11:27:17.944Z,966.99
2018-11-14T11:28:17.931Z,967
2018-11-14T11:29:17.919Z,967.01
2018-11-14T11:30:17.906Z,966.99
2018-11-14T11:31:17.895Z,967
2018-11-14T11:32:17.882Z,966.99
2018-11-14T11:33:17.873Z,967.02
2018-11-14T11:34:17.859Z,967.03
2018-11-14T11:35:17.845Z,967.06
2018-11-14T11:36:17.835Z,967.04
2018-11-14T11:37:17.823Z,967.03
2018-11-14T11:38:17.848Z,967.12
2018-11-14T11:39:17.799Z,967.04
2018-11-14T11:40:17.787Z,967.03
2018-11-14T11:41:17.775Z,967.01
2018-11-14T11:42:17.763Z,966.96
2018-11-14T11:43:17.751Z,966.99
2018-11-14T11:44:17.754Z,967.01
2018-11-14T11:45:17.729Z,966.99
2018-11-14T11:46:17.716Z,967.02
2018-11-14T11:47:17.704Z,966.93
2018-11-14T11:48:17.693Z,966.94
2018-11-14T11:49:17.681Z,966.96
2018-11-14T11:50:17.671Z,966.97
2018-11-14T11:51:17.659Z,967
2018-11-14T11:52:17.647Z,966.93
2018-11-14T11:53:17.634Z,966.97
2018-11-14T11:54:17.622Z,966.94
2018-11-14T11:55:17.609Z,966.94
2018-11-14T11:56:17.598Z,966.91
2018-11-14T11:57:17.587Z,966.89
2018-11-14T11:58:17.574Z,966.86
2018-11-14T11:59:17.617Z,966.87
2018-11-14T12:00:17.701Z,966.86
2018-11-14T12:01:17.539Z,966.86
2018-11-14T12:02:17.628Z,966.82
2018-11-14T12:03:17.515Z,966.84
2018-11-14T12:04:17.505Z,966.85
2018-11-14T12:05:17.491Z,966.86
2018-11-14T12:06:17.658Z,966.87
2018-11-14T12:07:17.469Z,966.85
2018-11-14T12:08:17.456Z,966.89
2018-11-14T12:09:17.445Z,966.88
2018-11-14T12:10:17.434Z,966.87
2018-11-14T12:11:17.425Z,966.84
2018-11-14T12:12:17.409Z,966.79
2018-11-14T12:13:17.438Z,966.75
2018-11-14T12:14:17.396Z,966.79
2018-11-14T12:15:17.375Z,966.75
2018-11-14T12:16:17.366Z,966.75
2018-11-14T12:17:17.350Z,966.74
2018-11-14T12:18:17.339Z,966.75
2018-11-14T12:19:17.425Z,966.73
2018-11-14T12:20:17.318Z,966.74
2018-11-14T12:21:17.304Z,966.71
2018-11-14T12:22:17.292Z,966.75
2018-11-14T12:23:17.280Z,966.76
2018-11-14T12:24:17.270Z,966.75
2018-11-14T12:25:17.263Z,966.72
2018-11-14T12:26:17.247Z,966.7
2018-11-14T12:27:17.336Z,966.73
2018-11-14T12:28:17.223Z,966.69
2018-11-14T12:29:17.219Z,966.7
2018-11-14T12:30:17.242Z,966.71
2018-11-14T12:31:17.252Z,966.71